sensor_id;sensor_type;location;lat;lon;timestamp;P1;durP1;ratioP1;P2;durP2;ratioP2
12120;SDS011;6124;59.460;17.908;2023-08-08T00:01:40;2.93;;;1.17;;
12120;SDS011;6124;59.460;17.908;2023-08-08T00:04:08;2.53;;;1.30;;
12120;SDS011;6124;59.460;17.908;2023-08-08T00:06:35;2.03;;;1.20;;
12120;SDS011;6124;59.460;17.908;2023-08-08T00:09:03;3.37;;;1.17;;
12120;SDS011;6124;59.460;17.908;2023-08-08T00:11:30;3.77;;;1.20;;
12120;SDS011;6124;59.460;17.908;2023-08-08T00:13:58;2.93;;;1.23;;
12120;SDS011;6124;59.460;17.908;2023-08-08T00:16:25;2.33;;;1.40;;
12120;SDS011;6124;59.460;17.908;2023-08-08T00:18:54;2.33;;;1.03;;
12120;SDS011;6124;59.460;17.908;2023-08-08T00:21:21;4.30;;;1.47;;
12120;SDS011;6124;59.460;17.908;2023-08-08T00:23:48;2.07;;;1.20;;
12120;SDS011;6124;59.460;17.908;2023-08-08T00:26:16;4.40;;;1.20;;
12120;SDS011;6124;59.460;17.908;2023-08-08T00:28:43;4.37;;;1.30;;
12120;SDS011;6124;59.460;17.908;2023-08-08T00:31:10;4.03;;;1.50;;
12120;SDS011;6124;59.460;17.908;2023-08-08T00:33:38;2.83;;;1.53;;
12120;SDS011;6124;59.460;17.908;2023-08-08T00:36:06;3.97;;;1.27;;
12120;SDS011;6124;59.460;17.908;2023-08-08T00:38:34;2.60;;;1.20;;
12120;SDS011;6124;59.460;17.908;2023-08-08T00:41:01;2.53;;;1.17;;
12120;SDS011;6124;59.460;17.908;2023-08-08T00:43:29;3.80;;;1.37;;
12120;SDS011;6124;59.460;17.908;2023-08-08T00:45:57;4.13;;;1.23;;
12120;SDS011;6124;59.460;17.908;2023-08-08T00:48:24;2.73;;;1.20;;
12120;SDS011;6124;59.460;17.908;2023-08-08T00:50:52;3.43;;;1.20;;
12120;SDS011;6124;59.460;17.908;2023-08-08T00:53:21;4.07;;;1.60;;
12120;SDS011;6124;59.460;17.908;2023-08-08T00:55:51;3.27;;;1.30;;
12120;SDS011;6124;59.460;17.908;2023-08-08T00:58:18;3.43;;;1.30;;
12120;SDS011;6124;59.460;17.908;2023-08-08T01:00:46;3.47;;;1.30;;
12120;SDS011;6124;59.460;17.908;2023-08-08T01:03:13;4.03;;;1.50;;
12120;SDS011;6124;59.460;17.908;2023-08-08T01:05:42;2.70;;;1.43;;
12120;SDS011;6124;59.460;17.908;2023-08-08T01:08:10;3.13;;;1.23;;
12120;SDS011;6124;59.460;17.908;2023-08-08T01:10:41;3.37;;;1.40;;
12120;SDS011;6124;59.460;17.908;2023-08-08T01:13:15;3.83;;;1.53;;
12120;SDS011;6124;59.460;17.908;2023-08-08T01:15:43;6.37;;;1.70;;
12120;SDS011;6124;59.460;17.908;2023-08-08T01:18:11;3.13;;;1.40;;
12120;SDS011;6124;59.460;17.908;2023-08-08T01:20:39;2.87;;;1.10;;
12120;SDS011;6124;59.460;17.908;2023-08-08T01:23:09;2.97;;;1.40;;
12120;SDS011;6124;59.460;17.908;2023-08-08T01:25:39;3.00;;;1.43;;
12120;SDS011;6124;59.460;17.908;2023-08-08T01:28:07;2.17;;;1.17;;
12120;SDS011;6124;59.460;17.908;2023-08-08T01:30:34;3.37;;;1.40;;
12120;SDS011;6124;59.460;17.908;2023-08-08T01:33:02;2.40;;;1.20;;
12120;SDS011;6124;59.460;17.908;2023-08-08T01:35:30;5.50;;;1.50;;
12120;SDS011;6124;59.460;17.908;2023-08-08T01:38:00;4.43;;;1.13;;
12120;SDS011;6124;59.460;17.908;2023-08-08T01:40:31;2.47;;;1.13;;
12120;SDS011;6124;59.460;17.908;2023-08-08T01:43:00;2.60;;;1.30;;
12120;SDS011;6124;59.460;17.908;2023-08-08T01:45:29;3.93;;;1.40;;
12120;SDS011;6124;59.460;17.908;2023-08-08T01:47:56;3.67;;;1.30;;
12120;SDS011;6124;59.460;17.908;2023-08-08T01:50:23;4.33;;;1.30;;
12120;SDS011;6124;59.460;17.908;2023-08-08T01:52:51;5.00;;;1.50;;
12120;SDS011;6124;59.460;17.908;2023-08-08T01:55:18;3.47;;;1.30;;
12120;SDS011;6124;59.460;17.908;2023-08-08T01:57:45;4.93;;;1.37;;
12120;SDS011;6124;59.460;17.908;2023-08-08T02:00:14;3.60;;;1.20;;
12120;SDS011;6124;59.460;17.908;2023-08-08T02:02:42;2.67;;;1.47;;
12120;SDS011;6124;59.460;17.908;2023-08-08T02:05:10;5.40;;;1.60;;
12120;SDS011;6124;59.460;17.908;2023-08-08T02:07:37;4.67;;;1.40;;
12120;SDS011;6124;59.460;17.908;2023-08-08T02:10:04;3.30;;;1.40;;
12120;SDS011;6124;59.460;17.908;2023-08-08T02:12:32;4.60;;;1.20;;
12120;SDS011;6124;59.460;17.908;2023-08-08T02:14:59;3.97;;;1.30;;
12120;SDS011;6124;59.460;17.908;2023-08-08T02:17:28;4.13;;;1.47;;
12120;SDS011;6124;59.460;17.908;2023-08-08T02:19:56;5.10;;;1.50;;
12120;SDS011;6124;59.460;17.908;2023-08-08T02:22:23;4.10;;;1.43;;
12120;SDS011;6124;59.460;17.908;2023-08-08T02:24:50;4.73;;;1.50;;
12120;SDS011;6124;59.460;17.908;2023-08-08T02:27:18;1.60;;;1.00;;
12120;SDS011;6124;59.460;17.908;2023-08-08T02:29:45;5.60;;;1.53;;
12120;SDS011;6124;59.460;17.908;2023-08-08T02:32:12;2.90;;;1.40;;
12120;SDS011;6124;59.460;17.908;2023-08-08T02:34:41;5.67;;;1.50;;
12120;SDS011;6124;59.460;17.908;2023-08-08T02:37:09;3.77;;;1.20;;
12120;SDS011;6124;59.460;17.908;2023-08-08T02:39:37;3.47;;;1.50;;
12120;SDS011;6124;59.460;17.908;2023-08-08T02:42:05;2.93;;;1.30;;
12120;SDS011;6124;59.460;17.908;2023-08-08T02:44:32;5.17;;;1.70;;
12120;SDS011;6124;59.460;17.908;2023-08-08T02:47:00;4.30;;;1.50;;
12120;SDS011;6124;59.460;17.908;2023-08-08T02:49:27;3.53;;;1.50;;
12120;SDS011;6124;59.460;17.908;2023-08-08T02:51:56;7.17;;;1.73;;
12120;SDS011;6124;59.460;17.908;2023-08-08T02:54:23;3.27;;;1.40;;
12120;SDS011;6124;59.460;17.908;2023-08-08T02:56:50;3.20;;;1.30;;
12120;SDS011;6124;59.460;17.908;2023-08-08T02:59:18;4.83;;;1.40;;
12120;SDS011;6124;59.460;17.908;2023-08-08T03:01:45;2.77;;;1.30;;
12120;SDS011;6124;59.460;17.908;2023-08-08T03:04:13;4.70;;;1.73;;
12120;SDS011;6124;59.460;17.908;2023-08-08T03:06:40;3.20;;;1.40;;
12120;SDS011;6124;59.460;17.908;2023-08-08T03:09:09;4.40;;;1.40;;
12120;SDS011;6124;59.460;17.908;2023-08-08T03:11:36;4.77;;;1.40;;
12120;SDS011;6124;59.460;17.908;2023-08-08T03:14:06;5.13;;;1.50;;
12120;SDS011;6124;59.460;17.908;2023-08-08T03:16:34;4.13;;;1.33;;
12120;SDS011;6124;59.460;17.908;2023-08-08T03:19:01;4.70;;;1.70;;
12120;SDS011;6124;59.460;17.908;2023-08-08T03:21:29;3.93;;;1.50;;
12120;SDS011;6124;59.460;17.908;2023-08-08T03:23:56;6.63;;;1.73;;
12120;SDS011;6124;59.460;17.908;2023-08-08T03:26:25;2.50;;;1.50;;
12120;SDS011;6124;59.460;17.908;2023-08-08T03:28:52;4.70;;;1.67;;
12120;SDS011;6124;59.460;17.908;2023-08-08T03:31:20;8.17;;;1.77;;
12120;SDS011;6124;59.460;17.908;2023-08-08T03:33:47;5.50;;;1.67;;
12120;SDS011;6124;59.460;17.908;2023-08-08T03:36:15;4.50;;;1.60;;
12120;SDS011;6124;59.460;17.908;2023-08-08T03:38:42;6.80;;;2.00;;
12120;SDS011;6124;59.460;17.908;2023-08-08T03:41:11;4.87;;;1.73;;
12120;SDS011;6124;59.460;17.908;2023-08-08T03:43:40;4.43;;;1.57;;
12120;SDS011;6124;59.460;17.908;2023-08-08T03:46:07;5.20;;;2.00;;
12120;SDS011;6124;59.460;17.908;2023-08-08T03:48:36;3.83;;;1.47;;
12120;SDS011;6124;59.460;17.908;2023-08-08T03:51:04;3.00;;;1.47;;
12120;SDS011;6124;59.460;17.908;2023-08-08T03:53:32;3.37;;;1.50;;
12120;SDS011;6124;59.460;17.908;2023-08-08T03:55:59;4.67;;;1.43;;
12120;SDS011;6124;59.460;17.908;2023-08-08T03:58:26;5.17;;;1.77;;
12120;SDS011;6124;59.460;17.908;2023-08-08T04:00:55;3.17;;;1.50;;
12120;SDS011;6124;59.460;17.908;2023-08-08T04:03:22;3.03;;;1.20;;
12120;SDS011;6124;59.460;17.908;2023-08-08T04:05:50;2.50;;;1.40;;
12120;SDS011;6124;59.460;17.908;2023-08-08T04:08:17;3.13;;;1.50;;
12120;SDS011;6124;59.460;17.908;2023-08-08T04:10:46;3.80;;;1.50;;
12120;SDS011;6124;59.460;17.908;2023-08-08T04:13:13;5.70;;;1.70;;
12120;SDS011;6124;59.460;17.908;2023-08-08T04:15:40;1.83;;;1.40;;
12120;SDS011;6124;59.460;17.908;2023-08-08T04:18:09;1.97;;;1.20;;
12120;SDS011;6124;59.460;17.908;2023-08-08T04:20:36;4.03;;;1.43;;
12120;SDS011;6124;59.460;17.908;2023-08-08T04:23:04;2.40;;;1.60;;
12120;SDS011;6124;59.460;17.908;2023-08-08T04:25:31;3.50;;;1.50;;
12120;SDS011;6124;59.460;17.908;2023-08-08T04:27:58;3.60;;;1.50;;
12120;SDS011;6124;59.460;17.908;2023-08-08T04:30:26;2.47;;;1.23;;
12120;SDS011;6124;59.460;17.908;2023-08-08T04:32:53;1.57;;;1.10;;
12120;SDS011;6124;59.460;17.908;2023-08-08T04:35:22;4.60;;;1.33;;
12120;SDS011;6124;59.460;17.908;2023-08-08T04:37:49;4.70;;;1.13;;
12120;SDS011;6124;59.460;17.908;2023-08-08T04:40:17;3.43;;;1.10;;
12120;SDS011;6124;59.460;17.908;2023-08-08T04:42:44;3.30;;;1.23;;
12120;SDS011;6124;59.460;17.908;2023-08-08T04:45:11;2.90;;;1.27;;
12120;SDS011;6124;59.460;17.908;2023-08-08T04:47:39;1.87;;;0.90;;
12120;SDS011;6124;59.460;17.908;2023-08-08T04:50:07;2.17;;;0.93;;
12120;SDS011;6124;59.460;17.908;2023-08-08T04:52:36;1.87;;;0.80;;
12120;SDS011;6124;59.460;17.908;2023-08-08T04:55:04;2.87;;;1.00;;
12120;SDS011;6124;59.460;17.908;2023-08-08T04:57:32;1.40;;;0.80;;
12120;SDS011;6124;59.460;17.908;2023-08-08T04:59:59;1.70;;;1.00;;
12120;SDS011;6124;59.460;17.908;2023-08-08T05:02:30;3.27;;;0.90;;
12120;SDS011;6124;59.460;17.908;2023-08-08T05:04:57;1.87;;;1.00;;
12120;SDS011;6124;59.460;17.908;2023-08-08T05:07:25;1.90;;;1.00;;
12120;SDS011;6124;59.460;17.908;2023-08-08T05:09:54;1.23;;;0.90;;
12120;SDS011;6124;59.460;17.908;2023-08-08T05:12:21;2.33;;;1.00;;
12120;SDS011;6124;59.460;17.908;2023-08-08T05:14:48;1.80;;;1.20;;
12120;SDS011;6124;59.460;17.908;2023-08-08T05:17:16;2.83;;;1.00;;
12120;SDS011;6124;59.460;17.908;2023-08-08T05:19:43;2.63;;;0.90;;
12120;SDS011;6124;59.460;17.908;2023-08-08T05:22:10;2.20;;;1.03;;
12120;SDS011;6124;59.460;17.908;2023-08-08T05:24:38;0.97;;;0.83;;
12120;SDS011;6124;59.460;17.908;2023-08-08T05:27:06;1.90;;;0.90;;
12120;SDS011;6124;59.460;17.908;2023-08-08T05:29:34;2.17;;;0.90;;
12120;SDS011;6124;59.460;17.908;2023-08-08T05:32:03;2.03;;;1.10;;
12120;SDS011;6124;59.460;17.908;2023-08-08T05:34:31;2.37;;;1.30;;
12120;SDS011;6124;59.460;17.908;2023-08-08T05:36:59;1.67;;;0.90;;
12120;SDS011;6124;59.460;17.908;2023-08-08T05:39:26;2.50;;;1.20;;
12120;SDS011;6124;59.460;17.908;2023-08-08T05:41:53;2.10;;;1.10;;
12120;SDS011;6124;59.460;17.908;2023-08-08T05:44:23;2.47;;;1.20;;
12120;SDS011;6124;59.460;17.908;2023-08-08T05:46:51;3.63;;;1.23;;
12120;SDS011;6124;59.460;17.908;2023-08-08T05:49:19;3.13;;;1.20;;
12120;SDS011;6124;59.460;17.908;2023-08-08T05:51:46;2.80;;;1.27;;
12120;SDS011;6124;59.460;17.908;2023-08-08T05:54:13;3.10;;;1.20;;
12120;SDS011;6124;59.460;17.908;2023-08-08T05:56:40;1.83;;;1.20;;
12120;SDS011;6124;59.460;17.908;2023-08-08T05:59:08;2.23;;;1.00;;
12120;SDS011;6124;59.460;17.908;2023-08-08T06:01:37;2.80;;;1.37;;
12120;SDS011;6124;59.460;17.908;2023-08-08T06:04:04;1.73;;;1.10;;
12120;SDS011;6124;59.460;17.908;2023-08-08T06:06:31;1.93;;;1.30;;
12120;SDS011;6124;59.460;17.908;2023-08-08T06:08:58;2.67;;;1.40;;
12120;SDS011;6124;59.460;17.908;2023-08-08T06:11:26;2.60;;;1.30;;
12120;SDS011;6124;59.460;17.908;2023-08-08T06:13:53;2.30;;;1.00;;
12120;SDS011;6124;59.460;17.908;2023-08-08T06:16:20;1.80;;;1.17;;
12120;SDS011;6124;59.460;17.908;2023-08-08T06:18:49;2.83;;;1.20;;
12120;SDS011;6124;59.460;17.908;2023-08-08T06:21:16;2.17;;;1.17;;
12120;SDS011;6124;59.460;17.908;2023-08-08T06:23:44;3.80;;;0.90;;
12120;SDS011;6124;59.460;17.908;2023-08-08T06:26:12;2.20;;;0.93;;
12120;SDS011;6124;59.460;17.908;2023-08-08T06:28:39;2.50;;;1.20;;
12120;SDS011;6124;59.460;17.908;2023-08-08T06:31:07;2.73;;;1.00;;
12120;SDS011;6124;59.460;17.908;2023-08-08T06:33:34;1.40;;;1.00;;
12120;SDS011;6124;59.460;17.908;2023-08-08T06:36:03;1.07;;;0.83;;
12120;SDS011;6124;59.460;17.908;2023-08-08T06:38:30;2.87;;;1.30;;
12120;SDS011;6124;59.460;17.908;2023-08-08T06:40:59;2.17;;;0.80;;
12120;SDS011;6124;59.460;17.908;2023-08-08T06:43:26;2.67;;;0.90;;
12120;SDS011;6124;59.460;17.908;2023-08-08T06:45:54;1.93;;;0.90;;
12120;SDS011;6124;59.460;17.908;2023-08-08T06:48:21;2.90;;;1.23;;
12120;SDS011;6124;59.460;17.908;2023-08-08T06:50:48;2.10;;;1.00;;
12120;SDS011;6124;59.460;17.908;2023-08-08T06:53:17;2.53;;;1.10;;
12120;SDS011;6124;59.460;17.908;2023-08-08T06:55:44;2.70;;;1.00;;
12120;SDS011;6124;59.460;17.908;2023-08-08T06:58:11;3.63;;;1.20;;
12120;SDS011;6124;59.460;17.908;2023-08-08T07:00:39;2.23;;;0.97;;
12120;SDS011;6124;59.460;17.908;2023-08-08T07:03:06;2.50;;;1.03;;
12120;SDS011;6124;59.460;17.908;2023-08-08T07:05:33;2.30;;;1.13;;
12120;SDS011;6124;59.460;17.908;2023-08-08T07:08:03;2.87;;;1.03;;
12120;SDS011;6124;59.460;17.908;2023-08-08T07:10:32;1.43;;;0.80;;
12120;SDS011;6124;59.460;17.908;2023-08-08T07:12:59;1.30;;;0.73;;
12120;SDS011;6124;59.460;17.908;2023-08-08T07:15:26;2.13;;;0.90;;
12120;SDS011;6124;59.460;17.908;2023-08-08T07:17:53;1.13;;;0.77;;
12120;SDS011;6124;59.460;17.908;2023-08-08T07:20:21;0.80;;;0.80;;
12120;SDS011;6124;59.460;17.908;2023-08-08T07:22:48;2.60;;;0.90;;
12120;SDS011;6124;59.460;17.908;2023-08-08T07:25:16;2.13;;;0.93;;
12120;SDS011;6124;59.460;17.908;2023-08-08T07:27:45;2.63;;;0.70;;
12120;SDS011;6124;59.460;17.908;2023-08-08T07:30:12;2.60;;;1.17;;
12120;SDS011;6124;59.460;17.908;2023-08-08T07:32:39;1.10;;;1.00;;
12120;SDS011;6124;59.460;17.908;2023-08-08T07:35:07;2.10;;;1.00;;
12120;SDS011;6124;59.460;17.908;2023-08-08T07:37:35;1.47;;;0.93;;
12120;SDS011;6124;59.460;17.908;2023-08-08T07:40:03;2.03;;;0.90;;
12120;SDS011;6124;59.460;17.908;2023-08-08T07:42:30;1.50;;;0.83;;
12120;SDS011;6124;59.460;17.908;2023-08-08T07:44:59;1.90;;;1.00;;
12120;SDS011;6124;59.460;17.908;2023-08-08T07:47:26;2.30;;;1.10;;
12120;SDS011;6124;59.460;17.908;2023-08-08T07:49:54;1.20;;;0.90;;
12120;SDS011;6124;59.460;17.908;2023-08-08T07:52:22;2.13;;;1.00;;
12120;SDS011;6124;59.460;17.908;2023-08-08T07:54:49;2.33;;;1.13;;
12120;SDS011;6124;59.460;17.908;2023-08-08T07:57:17;1.83;;;1.00;;
12120;SDS011;6124;59.460;17.908;2023-08-08T07:59:44;1.17;;;0.87;;
12120;SDS011;6124;59.460;17.908;2023-08-08T08:02:13;2.70;;;1.20;;
12120;SDS011;6124;59.460;17.908;2023-08-08T08:04:40;1.63;;;1.20;;
12120;SDS011;6124;59.460;17.908;2023-08-08T08:07:07;1.60;;;1.00;;
12120;SDS011;6124;59.460;17.908;2023-08-08T08:09:35;2.13;;;1.20;;
12120;SDS011;6124;59.460;17.908;2023-08-08T08:12:02;2.60;;;0.93;;
12120;SDS011;6124;59.460;17.908;2023-08-08T08:14:30;2.10;;;1.43;;
12120;SDS011;6124;59.460;17.908;2023-08-08T08:16:57;4.03;;;1.30;;
12120;SDS011;6124;59.460;17.908;2023-08-08T08:19:26;2.30;;;1.30;;
12120;SDS011;6124;59.460;17.908;2023-08-08T08:21:53;1.57;;;1.20;;
12120;SDS011;6124;59.460;17.908;2023-08-08T08:24:20;1.70;;;1.27;;
12120;SDS011;6124;59.460;17.908;2023-08-08T08:26:48;1.30;;;1.20;;
12120;SDS011;6124;59.460;17.908;2023-08-08T08:29:15;2.30;;;1.40;;
12120;SDS011;6124;59.460;17.908;2023-08-08T08:31:43;2.47;;;1.30;;
12120;SDS011;6124;59.460;17.908;2023-08-08T08:34:10;1.70;;;1.60;;
12120;SDS011;6124;59.460;17.908;2023-08-08T08:36:39;3.13;;;1.50;;
12120;SDS011;6124;59.460;17.908;2023-08-08T08:39:06;2.03;;;1.40;;
12120;SDS011;6124;59.460;17.908;2023-08-08T08:41:33;3.13;;;1.63;;
12120;SDS011;6124;59.460;17.908;2023-08-08T08:44:03;4.17;;;1.40;;
12120;SDS011;6124;59.460;17.908;2023-08-08T08:46:31;2.37;;;1.27;;
12120;SDS011;6124;59.460;17.908;2023-08-08T08:48:59;2.97;;;1.50;;
12120;SDS011;6124;59.460;17.908;2023-08-08T08:51:26;1.87;;;1.20;;
12120;SDS011;6124;59.460;17.908;2023-08-08T08:53:55;1.87;;;1.30;;
12120;SDS011;6124;59.460;17.908;2023-08-08T08:56:23;2.33;;;1.33;;
12120;SDS011;6124;59.460;17.908;2023-08-08T08:58:51;3.37;;;1.40;;
12120;SDS011;6124;59.460;17.908;2023-08-08T09:01:18;4.20;;;1.53;;
12120;SDS011;6124;59.460;17.908;2023-08-08T09:03:45;3.17;;;1.70;;
12120;SDS011;6124;59.460;17.908;2023-08-08T09:06:12;1.83;;;1.47;;
12120;SDS011;6124;59.460;17.908;2023-08-08T09:08:41;3.63;;;1.50;;
12120;SDS011;6124;59.460;17.908;2023-08-08T09:11:13;2.13;;;1.80;;
12120;SDS011;6124;59.460;17.908;2023-08-08T09:13:40;2.07;;;1.50;;
12120;SDS011;6124;59.460;17.908;2023-08-08T09:16:08;2.30;;;1.43;;
12120;SDS011;6124;59.460;17.908;2023-08-08T09:18:37;1.40;;;1.30;;
12120;SDS011;6124;59.460;17.908;2023-08-08T09:21:05;1.40;;;1.20;;
12120;SDS011;6124;59.460;17.908;2023-08-08T09:23:32;1.70;;;1.37;;
12120;SDS011;6124;59.460;17.908;2023-08-08T09:25:59;1.30;;;1.10;;
12120;SDS011;6124;59.460;17.908;2023-08-08T09:28:28;2.87;;;0.90;;
12120;SDS011;6124;59.460;17.908;2023-08-08T09:30:55;0.70;;;0.70;;
12120;SDS011;6124;59.460;17.908;2023-08-08T09:33:23;1.23;;;0.70;;
12120;SDS011;6124;59.460;17.908;2023-08-08T09:35:52;0.70;;;0.70;;
12120;SDS011;6124;59.460;17.908;2023-08-08T09:38:21;1.17;;;0.70;;
12120;SDS011;6124;59.460;17.908;2023-08-08T09:40:49;0.70;;;0.70;;
12120;SDS011;6124;59.460;17.908;2023-08-08T09:43:17;0.70;;;0.70;;
12120;SDS011;6124;59.460;17.908;2023-08-08T09:45:46;1.00;;;0.90;;
12120;SDS011;6124;59.460;17.908;2023-08-08T09:48:14;0.80;;;0.80;;
12120;SDS011;6124;59.460;17.908;2023-08-08T09:50:43;1.10;;;1.00;;
12120;SDS011;6124;59.460;17.908;2023-08-08T09:53:11;2.10;;;0.80;;
12120;SDS011;6124;59.460;17.908;2023-08-08T09:55:39;2.00;;;0.90;;
12120;SDS011;6124;59.460;17.908;2023-08-08T09:58:07;0.93;;;0.80;;
12120;SDS011;6124;59.460;17.908;2023-08-08T10:00:35;0.93;;;0.93;;
12120;SDS011;6124;59.460;17.908;2023-08-08T10:03:04;0.87;;;0.87;;
12120;SDS011;6124;59.460;17.908;2023-08-08T10:05:32;1.47;;;1.03;;
12120;SDS011;6124;59.460;17.908;2023-08-08T10:08:00;1.87;;;1.20;;
12120;SDS011;6124;59.460;17.908;2023-08-08T10:10:28;2.23;;;1.10;;
12120;SDS011;6124;59.460;17.908;2023-08-08T10:12:56;2.03;;;1.20;;
12120;SDS011;6124;59.460;17.908;2023-08-08T10:15:25;3.10;;;1.40;;
12120;SDS011;6124;59.460;17.908;2023-08-08T10:17:53;2.50;;;1.40;;
12120;SDS011;6124;59.460;17.908;2023-08-08T10:20:23;2.13;;;1.20;;
12120;SDS011;6124;59.460;17.908;2023-08-08T10:22:51;2.20;;;1.37;;
12120;SDS011;6124;59.460;17.908;2023-08-08T10:25:22;1.53;;;1.43;;
12120;SDS011;6124;59.460;17.908;2023-08-08T10:27:49;1.73;;;1.63;;
12120;SDS011;6124;59.460;17.908;2023-08-08T10:30:16;1.90;;;1.80;;
12120;SDS011;6124;59.460;17.908;2023-08-08T10:32:44;2.27;;;1.60;;
12120;SDS011;6124;59.460;17.908;2023-08-08T10:35:12;2.43;;;1.60;;
12120;SDS011;6124;59.460;17.908;2023-08-08T10:37:51;2.33;;;1.40;;
12120;SDS011;6124;59.460;17.908;2023-08-08T10:40:18;2.30;;;1.70;;
12120;SDS011;6124;59.460;17.908;2023-08-08T10:42:46;1.63;;;1.30;;
12120;SDS011;6124;59.460;17.908;2023-08-08T10:45:14;1.40;;;1.30;;
12120;SDS011;6124;59.460;17.908;2023-08-08T10:47:42;2.13;;;1.27;;
12120;SDS011;6124;59.460;17.908;2023-08-08T10:50:10;1.30;;;1.10;;
12120;SDS011;6124;59.460;17.908;2023-08-08T10:52:38;1.37;;;1.20;;
12120;SDS011;6124;59.460;17.908;2023-08-08T10:55:22;4.00;;;1.20;;
12120;SDS011;6124;59.460;17.908;2023-08-08T10:57:54;2.50;;;1.10;;
12120;SDS011;6124;59.460;17.908;2023-08-08T11:00:23;1.10;;;1.00;;
12120;SDS011;6124;59.460;17.908;2023-08-08T11:02:51;1.73;;;1.10;;
12120;SDS011;6124;59.460;17.908;2023-08-08T11:05:18;1.10;;;1.00;;
12120;SDS011;6124;59.460;17.908;2023-08-08T11:07:46;1.67;;;1.00;;
12120;SDS011;6124;59.460;17.908;2023-08-08T11:10:13;1.10;;;1.00;;
12120;SDS011;6124;59.460;17.908;2023-08-08T11:12:42;1.57;;;1.03;;
12120;SDS011;6124;59.460;17.908;2023-08-08T11:15:09;2.20;;;1.13;;
12120;SDS011;6124;59.460;17.908;2023-08-08T11:17:36;2.33;;;1.10;;
12120;SDS011;6124;59.460;17.908;2023-08-08T11:20:04;4.13;;;0.93;;
12120;SDS011;6124;59.460;17.908;2023-08-08T11:22:32;2.60;;;1.10;;
12120;SDS011;6124;59.460;17.908;2023-08-08T11:24:59;0.90;;;0.90;;
12120;SDS011;6124;59.460;17.908;2023-08-08T11:27:28;2.13;;;1.10;;
12120;SDS011;6124;59.460;17.908;2023-08-08T11:29:57;1.57;;;0.90;;
12120;SDS011;6124;59.460;17.908;2023-08-08T11:32:25;1.37;;;1.00;;
12120;SDS011;6124;59.460;17.908;2023-08-08T11:34:53;1.23;;;1.10;;
12120;SDS011;6124;59.460;17.908;2023-08-08T11:37:20;1.90;;;1.20;;
12120;SDS011;6124;59.460;17.908;2023-08-08T11:39:48;2.07;;;1.17;;
12120;SDS011;6124;59.460;17.908;2023-08-08T11:42:16;2.03;;;1.10;;
12120;SDS011;6124;59.460;17.908;2023-08-08T11:44:43;1.90;;;1.00;;
12120;SDS011;6124;59.460;17.908;2023-08-08T11:47:12;1.20;;;1.10;;
12120;SDS011;6124;59.460;17.908;2023-08-08T11:49:40;3.50;;;1.30;;
12120;SDS011;6124;59.460;17.908;2023-08-08T11:52:08;1.87;;;1.10;;
12120;SDS011;6124;59.460;17.908;2023-08-08T11:54:36;1.30;;;1.00;;
12120;SDS011;6124;59.460;17.908;2023-08-08T11:57:04;1.50;;;1.00;;
12120;SDS011;6124;59.460;17.908;2023-08-08T11:59:31;1.87;;;1.10;;
12120;SDS011;6124;59.460;17.908;2023-08-08T12:01:58;1.47;;;1.03;;
12120;SDS011;6124;59.460;17.908;2023-08-08T12:04:27;1.53;;;1.43;;
12120;SDS011;6124;59.460;17.908;2023-08-08T12:07:00;2.03;;;1.30;;
12120;SDS011;6124;59.460;17.908;2023-08-08T12:09:29;2.57;;;1.20;;
12120;SDS011;6124;59.460;17.908;2023-08-08T12:11:58;2.40;;;1.30;;
12120;SDS011;6124;59.460;17.908;2023-08-08T12:14:26;2.53;;;1.47;;
12120;SDS011;6124;59.460;17.908;2023-08-08T12:16:53;2.27;;;1.20;;
12120;SDS011;6124;59.460;17.908;2023-08-08T12:19:22;1.27;;;1.10;;
12120;SDS011;6124;59.460;17.908;2023-08-08T12:21:51;2.83;;;1.17;;
12120;SDS011;6124;59.460;17.908;2023-08-08T12:24:18;2.10;;;1.30;;
12120;SDS011;6124;59.460;17.908;2023-08-08T12:26:46;1.53;;;1.20;;
12120;SDS011;6124;59.460;17.908;2023-08-08T12:29:13;1.37;;;1.20;;
12120;SDS011;6124;59.460;17.908;2023-08-08T12:31:40;2.20;;;1.20;;
12120;SDS011;6124;59.460;17.908;2023-08-08T12:34:08;1.27;;;1.00;;
12120;SDS011;6124;59.460;17.908;2023-08-08T12:36:35;1.90;;;1.20;;
12120;SDS011;6124;59.460;17.908;2023-08-08T12:39:06;1.10;;;1.00;;
12120;SDS011;6124;59.460;17.908;2023-08-08T12:41:33;1.07;;;0.93;;
12120;SDS011;6124;59.460;17.908;2023-08-08T12:44:01;1.90;;;1.17;;
12120;SDS011;6124;59.460;17.908;2023-08-08T12:46:28;1.47;;;1.20;;
12120;SDS011;6124;59.460;17.908;2023-08-08T12:48:56;1.60;;;1.20;;
12120;SDS011;6124;59.460;17.908;2023-08-08T12:51:23;2.63;;;1.23;;
12120;SDS011;6124;59.460;17.908;2023-08-08T12:53:50;2.03;;;1.27;;
12120;SDS011;6124;59.460;17.908;2023-08-08T12:56:19;1.27;;;1.00;;
12120;SDS011;6124;59.460;17.908;2023-08-08T12:58:47;2.60;;;1.10;;
12120;SDS011;6124;59.460;17.908;2023-08-08T13:01:15;2.20;;;1.03;;
12120;SDS011;6124;59.460;17.908;2023-08-08T13:03:42;4.87;;;1.40;;
12120;SDS011;6124;59.460;17.908;2023-08-08T13:06:09;3.47;;;1.20;;
12120;SDS011;6124;59.460;17.908;2023-08-08T13:08:38;1.93;;;1.10;;
12120;SDS011;6124;59.460;17.908;2023-08-08T13:11:05;3.60;;;1.03;;
12120;SDS011;6124;59.460;17.908;2023-08-08T13:13:34;2.07;;;1.20;;
12120;SDS011;6124;59.460;17.908;2023-08-08T13:16:01;3.33;;;1.00;;
12120;SDS011;6124;59.460;17.908;2023-08-08T13:18:29;2.47;;;1.30;;
12120;SDS011;6124;59.460;17.908;2023-08-08T13:20:56;3.23;;;1.10;;
12120;SDS011;6124;59.460;17.908;2023-08-08T13:23:23;3.93;;;1.20;;
12120;SDS011;6124;59.460;17.908;2023-08-08T13:25:50;2.63;;;1.20;;
12120;SDS011;6124;59.460;17.908;2023-08-08T13:28:18;1.30;;;1.03;;
12120;SDS011;6124;59.460;17.908;2023-08-08T13:30:46;1.70;;;1.10;;
12120;SDS011;6124;59.460;17.908;2023-08-08T13:33:14;3.80;;;1.30;;
12120;SDS011;6124;59.460;17.908;2023-08-08T13:35:41;2.20;;;1.20;;
12120;SDS011;6124;59.460;17.908;2023-08-08T13:38:09;1.63;;;1.10;;
12120;SDS011;6124;59.460;17.908;2023-08-08T13:40:39;1.97;;;1.10;;
12120;SDS011;6124;59.460;17.908;2023-08-08T13:43:06;2.00;;;1.10;;
12120;SDS011;6124;59.460;17.908;2023-08-08T13:45:34;2.73;;;1.20;;
12120;SDS011;6124;59.460;17.908;2023-08-08T13:48:03;2.07;;;1.40;;
12120;SDS011;6124;59.460;17.908;2023-08-08T13:50:31;2.33;;;1.20;;
12120;SDS011;6124;59.460;17.908;2023-08-08T13:52:58;2.87;;;1.80;;
12120;SDS011;6124;59.460;17.908;2023-08-08T13:55:25;2.13;;;1.30;;
12120;SDS011;6124;59.460;17.908;2023-08-08T13:57:53;6.33;;;1.60;;
12120;SDS011;6124;59.460;17.908;2023-08-08T14:00:22;2.60;;;1.33;;
12120;SDS011;6124;59.460;17.908;2023-08-08T14:02:49;2.57;;;1.33;;
12120;SDS011;6124;59.460;17.908;2023-08-08T14:05:18;1.93;;;1.23;;
12120;SDS011;6124;59.460;17.908;2023-08-08T14:07:45;4.50;;;1.30;;
12120;SDS011;6124;59.460;17.908;2023-08-08T14:10:12;3.40;;;1.40;;
12120;SDS011;6124;59.460;17.908;2023-08-08T14:12:40;3.60;;;1.43;;
12120;SDS011;6124;59.460;17.908;2023-08-08T14:15:08;3.57;;;1.30;;
12120;SDS011;6124;59.460;17.908;2023-08-08T14:17:35;3.77;;;1.13;;
12120;SDS011;6124;59.460;17.908;2023-08-08T14:20:02;2.80;;;1.20;;
12120;SDS011;6124;59.460;17.908;2023-08-08T14:22:33;3.73;;;1.17;;
12120;SDS011;6124;59.460;17.908;2023-08-08T14:25:01;3.30;;;1.20;;
12120;SDS011;6124;59.460;17.908;2023-08-08T14:27:29;3.70;;;1.00;;
12120;SDS011;6124;59.460;17.908;2023-08-08T14:29:56;2.43;;;1.30;;
12120;SDS011;6124;59.460;17.908;2023-08-08T14:32:23;3.47;;;1.17;;
12120;SDS011;6124;59.460;17.908;2023-08-08T14:34:51;4.40;;;1.53;;
12120;SDS011;6124;59.460;17.908;2023-08-08T14:37:18;3.53;;;1.37;;
12120;SDS011;6124;59.460;17.908;2023-08-08T14:39:48;4.50;;;1.10;;
12120;SDS011;6124;59.460;17.908;2023-08-08T14:42:15;2.17;;;1.23;;
12120;SDS011;6124;59.460;17.908;2023-08-08T14:44:42;2.07;;;1.20;;
12120;SDS011;6124;59.460;17.908;2023-08-08T14:47:10;2.87;;;1.10;;
12120;SDS011;6124;59.460;17.908;2023-08-08T14:49:37;5.87;;;1.20;;
12120;SDS011;6124;59.460;17.908;2023-08-08T14:52:04;2.20;;;1.00;;